sensor_id;sensor_type;location;lat;lon;timestamp;temperature;humidity
18876;DHT22;9570;50.854;13.778;2022-12-18T00:01:34;-9.30;99.90
18876;DHT22;9570;50.854;13.778;2022-12-18T00:04:01;-9.30;99.90
18876;DHT22;9570;50.854;13.778;2022-12-18T00:06:28;-9.30;99.90
18876;DHT22;9570;50.854;13.778;2022-12-18T00:08:56;-9.40;99.90
18876;DHT22;9570;50.854;13.778;2022-12-18T00:11:24;-9.30;99.90
18876;DHT22;9570;50.854;13.778;2022-12-18T00:13:50;-9.30;99.90
18876;DHT22;9570;50.854;13.778;2022-12-18T00:16:19;-9.30;99.90
18876;DHT22;9570;50.854;13.778;2022-12-18T00:18:46;-9.30;99.90
18876;DHT22;9570;50.854;13.778;2022-12-18T00:21:13;-9.30;99.90
18876;DHT22;9570;50.854;13.778;2022-12-18T00:23:40;-9.40;99.90
18876;DHT22;9570;50.854;13.778;2022-12-18T00:26:10;-9.40;99.90
18876;DHT22;9570;50.854;13.778;2022-12-18T00:28:36;-9.40;99.90
18876;DHT22;9570;50.854;13.778;2022-12-18T00:31:10;-9.50;99.90
18876;DHT22;9570;50.854;13.778;2022-12-18T00:33:37;-9.40;99.90
18876;DHT22;9570;50.854;13.778;2022-12-18T00:36:04;-9.50;99.90
18876;DHT22;9570;50.854;13.778;2022-12-18T00:38:30;-9.50;99.90
18876;DHT22;9570;50.854;13.778;2022-12-18T00:40:55;-9.60;99.90
18876;DHT22;9570;50.854;13.778;2022-12-18T00:43:21;-9.60;99.90
18876;DHT22;9570;50.854;13.778;2022-12-18T00:45:47;-9.50;99.90
18876;DHT22;9570;50.854;13.778;2022-12-18T00:48:12;-9.50;99.90
18876;DHT22;9570;50.854;13.778;2022-12-18T00:50:37;-9.60;99.90
18876;DHT22;9570;50.854;13.778;2022-12-18T00:53:03;-9.60;99.90
18876;DHT22;9570;50.854;13.778;2022-12-18T00:55:29;-9.60;99.90
18876;DHT22;9570;50.854;13.778;2022-12-18T00:57:54;-9.60;99.90
18876;DHT22;9570;50.854;13.778;2022-12-18T01:00:20;-9.60;99.90
18876;DHT22;9570;50.854;13.778;2022-12-18T01:02:46;-9.60;99.90
18876;DHT22;9570;50.854;13.778;2022-12-18T01:05:13;-9.60;99.90
18876;DHT22;9570;50.854;13.778;2022-12-18T01:07:39;-9.60;99.90
18876;DHT22;9570;50.854;13.778;2022-12-18T01:10:06;-9.70;99.90
18876;DHT22;9570;50.854;13.778;2022-12-18T01:12:31;-9.80;99.90
18876;DHT22;9570;50.854;13.778;2022-12-18T01:14:57;-9.80;99.90
18876;DHT22;9570;50.854;13.778;2022-12-18T01:17:23;-9.90;99.90
18876;DHT22;9570;50.854;13.778;2022-12-18T01:19:49;-9.90;99.90
18876;DHT22;9570;50.854;13.778;2022-12-18T01:22:14;-9.90;99.90
18876;DHT22;9570;50.854;13.778;2022-12-18T01:24:40;-9.90;99.90
18876;DHT22;9570;50.854;13.778;2022-12-18T01:27:05;-9.90;99.90
18876;DHT22;9570;50.854;13.778;2022-12-18T01:29:31;-9.90;99.90
18876;DHT22;9570;50.854;13.778;2022-12-18T01:31:57;-9.80;99.90
18876;DHT22;9570;50.854;13.778;2022-12-18T01:34:23;-9.90;99.90
18876;DHT22;9570;50.854;13.778;2022-12-18T01:36:49;-9.90;99.90
18876;DHT22;9570;50.854;13.778;2022-12-18T01:39:18;-9.90;99.90
18876;DHT22;9570;50.854;13.778;2022-12-18T01:41:43;-9.90;99.90
18876;DHT22;9570;50.854;13.778;2022-12-18T01:44:54;-9.90;99.90
18876;DHT22;9570;50.854;13.778;2022-12-18T01:47:57;-9.90;99.90
18876;DHT22;9570;50.854;13.778;2022-12-18T01:50:25;-9.90;99.90
18876;DHT22;9570;50.854;13.778;2022-12-18T01:53:05;-9.90;99.90
18876;DHT22;9570;50.854;13.778;2022-12-18T01:55:36;-10.00;99.90
18876;DHT22;9570;50.854;13.778;2022-12-18T01:58:04;-10.00;99.90
18876;DHT22;9570;50.854;13.778;2022-12-18T02:00:30;-10.10;99.90
18876;DHT22;9570;50.854;13.778;2022-12-18T02:02:56;-10.10;99.90
18876;DHT22;9570;50.854;13.778;2022-12-18T02:05:44;-10.10;99.90
18876;DHT22;9570;50.854;13.778;2022-12-18T02:08:26;-10.00;99.90
18876;DHT22;9570;50.854;13.778;2022-12-18T02:14:23;-10.10;99.90
18876;DHT22;9570;50.854;13.778;2022-12-18T02:17:16;-10.10;99.90
18876;DHT22;9570;50.854;13.778;2022-12-18T02:24:59;-10.20;99.90
18876;DHT22;9570;50.854;13.778;2022-12-18T02:27:28;-10.20;99.90
18876;DHT22;9570;50.854;13.778;2022-12-18T02:29:55;-10.20;99.90
18876;DHT22;9570;50.854;13.778;2022-12-18T02:32:27;-10.30;99.90
18876;DHT22;9570;50.854;13.778;2022-12-18T02:34:55;-10.30;99.90
18876;DHT22;9570;50.854;13.778;2022-12-18T02:37:22;-10.30;99.90
18876;DHT22;9570;50.854;13.778;2022-12-18T02:39:49;-10.40;99.90
18876;DHT22;9570;50.854;13.778;2022-12-18T02:42:18;-10.40;99.90
18876;DHT22;9570;50.854;13.778;2022-12-18T02:44:50;-10.30;99.90
18876;DHT22;9570;50.854;13.778;2022-12-18T02:47:18;-10.30;99.90
18876;DHT22;9570;50.854;13.778;2022-12-18T02:49:57;-10.30;99.90
18876;DHT22;9570;50.854;13.778;2022-12-18T02:52:31;-10.30;99.90
18876;DHT22;9570;50.854;13.778;2022-12-18T02:57:56;-10.30;99.90
18876;DHT22;9570;50.854;13.778;2022-12-18T03:00:31;-10.40;99.90
18876;DHT22;9570;50.854;13.778;2022-12-18T03:03:22;-10.40;99.90
18876;DHT22;9570;50.854;13.778;2022-12-18T03:05:53;-10.40;99.90
18876;DHT22;9570;50.854;13.778;2022-12-18T03:08:34;-10.30;99.90
18876;DHT22;9570;50.854;13.778;2022-12-18T03:11:10;-10.30;99.90
18876;DHT22;9570;50.854;13.778;2022-12-18T03:13:44;-10.30;99.90
18876;DHT22;9570;50.854;13.778;2022-12-18T03:16:14;-10.40;99.90
18876;DHT22;9570;50.854;13.778;2022-12-18T03:18:54;-10.30;99.90
18876;DHT22;9570;50.854;13.778;2022-12-18T03:21:25;-10.40;99.90
18876;DHT22;9570;50.854;13.778;2022-12-18T03:23:52;-10.40;99.90
18876;DHT22;9570;50.854;13.778;2022-12-18T03:26:22;-10.40;99.90
18876;DHT22;9570;50.854;13.778;2022-12-18T03:28:57;-10.40;99.90
18876;DHT22;9570;50.854;13.778;2022-12-18T03:31:26;-10.40;99.90
18876;DHT22;9570;50.854;13.778;2022-12-18T03:33:54;-10.40;99.90
18876;DHT22;9570;50.854;13.778;2022-12-18T03:36:20;-10.50;99.90
18876;DHT22;9570;50.854;13.778;2022-12-18T03:38:45;-10.50;99.90
18876;DHT22;9570;50.854;13.778;2022-12-18T03:44:03;-10.50;99.90
18876;DHT22;9570;50.854;13.778;2022-12-18T03:49:39;-10.60;99.90
18876;DHT22;9570;50.854;13.778;2022-12-18T03:52:11;-10.60;99.90
18876;DHT22;9570;50.854;13.778;2022-12-18T03:54:39;-10.60;99.90
18876;DHT22;9570;50.854;13.778;2022-12-18T03:57:13;-10.60;99.90
18876;DHT22;9570;50.854;13.778;2022-12-18T03:59:41;-10.60;99.90
18876;DHT22;9570;50.854;13.778;2022-12-18T04:02:08;-10.70;99.90
18876;DHT22;9570;50.854;13.778;2022-12-18T04:04:35;-10.70;99.90
18876;DHT22;9570;50.854;13.778;2022-12-18T04:07:03;-10.60;99.90
18876;DHT22;9570;50.854;13.778;2022-12-18T04:09:30;-10.70;99.90
18876;DHT22;9570;50.854;13.778;2022-12-18T04:11:57;-10.70;99.90
18876;DHT22;9570;50.854;13.778;2022-12-18T04:14:22;-10.60;99.90
18876;DHT22;9570;50.854;13.778;2022-12-18T04:16:48;-10.70;99.90
18876;DHT22;9570;50.854;13.778;2022-12-18T04:19:13;-10.70;99.90
18876;DHT22;9570;50.854;13.778;2022-12-18T04:21:39;-10.70;99.90
18876;DHT22;9570;50.854;13.778;2022-12-18T04:24:04;-10.80;99.90
18876;DHT22;9570;50.854;13.778;2022-12-18T04:26:30;-10.80;99.90
18876;DHT22;9570;50.854;13.778;2022-12-18T04:28:56;-10.80;99.90
18876;DHT22;9570;50.854;13.778;2022-12-18T04:31:21;-10.80;99.90
18876;DHT22;9570;50.854;13.778;2022-12-18T04:33:47;-10.80;99.90
18876;DHT22;9570;50.854;13.778;2022-12-18T04:36:12;-10.80;99.90
18876;DHT22;9570;50.854;13.778;2022-12-18T04:38:38;-10.90;99.90
18876;DHT22;9570;50.854;13.778;2022-12-18T04:41:03;-10.90;99.90
18876;DHT22;9570;50.854;13.778;2022-12-18T04:43:29;-10.90;99.90
18876;DHT22;9570;50.854;13.778;2022-12-18T04:46:02;-10.90;99.90
18876;DHT22;9570;50.854;13.778;2022-12-18T04:48:27;-11.00;99.90
18876;DHT22;9570;50.854;13.778;2022-12-18T04:50:53;-11.00;99.90
18876;DHT22;9570;50.854;13.778;2022-12-18T04:53:18;-11.00;99.90
18876;DHT22;9570;50.854;13.778;2022-12-18T04:55:44;-11.00;99.90
18876;DHT22;9570;50.854;13.778;2022-12-18T04:58:09;-11.00;99.90
18876;DHT22;9570;50.854;13.778;2022-12-18T05:00:35;-11.00;99.90
18876;DHT22;9570;50.854;13.778;2022-12-18T05:03:01;-11.10;99.90
18876;DHT22;9570;50.854;13.778;2022-12-18T05:05:27;-11.10;99.90
18876;DHT22;9570;50.854;13.778;2022-12-18T05:07:53;-11.10;99.90
18876;DHT22;9570;50.854;13.778;2022-12-18T05:10:18;-11.20;99.90
18876;DHT22;9570;50.854;13.778;2022-12-18T05:12:44;-11.10;99.90
18876;DHT22;9570;50.854;13.778;2022-12-18T05:15:29;-11.10;99.90
18876;DHT22;9570;50.854;13.778;2022-12-18T05:17:55;-11.10;99.90
18876;DHT22;9570;50.854;13.778;2022-12-18T05:20:21;-11.10;99.90
18876;DHT22;9570;50.854;13.778;2022-12-18T05:22:47;-11.10;99.90
18876;DHT22;9570;50.854;13.778;2022-12-18T05:25:12;-11.20;99.90
18876;DHT22;9570;50.854;13.778;2022-12-18T05:27:38;-11.20;99.90
18876;DHT22;9570;50.854;13.778;2022-12-18T05:30:04;-11.20;99.90
18876;DHT22;9570;50.854;13.778;2022-12-18T05:32:29;-11.10;99.90
18876;DHT22;9570;50.854;13.778;2022-12-18T05:34:56;-11.20;99.90
18876;DHT22;9570;50.854;13.778;2022-12-18T05:37:22;-11.20;99.90
18876;DHT22;9570;50.854;13.778;2022-12-18T05:39:48;-11.20;99.90
18876;DHT22;9570;50.854;13.778;2022-12-18T05:42:13;-11.20;99.90
18876;DHT22;9570;50.854;13.778;2022-12-18T05:44:39;-11.20;99.90
18876;DHT22;9570;50.854;13.778;2022-12-18T05:47:04;-11.20;99.90
18876;DHT22;9570;50.854;13.778;2022-12-18T05:49:30;-11.20;99.90
18876;DHT22;9570;50.854;13.778;2022-12-18T05:51:55;-11.20;99.90
18876;DHT22;9570;50.854;13.778;2022-12-18T05:54:21;-11.30;99.90
18876;DHT22;9570;50.854;13.778;2022-12-18T05:56:47;-11.20;99.90
18876;DHT22;9570;50.854;13.778;2022-12-18T05:59:12;-11.20;99.90
18876;DHT22;9570;50.854;13.778;2022-12-18T06:01:38;-11.20;99.90
18876;DHT22;9570;50.854;13.778;2022-12-18T06:04:03;-11.20;99.90
18876;DHT22;9570;50.854;13.778;2022-12-18T06:06:29;-11.30;99.90
18876;DHT22;9570;50.854;13.778;2022-12-18T06:08:55;-11.30;99.90
18876;DHT22;9570;50.854;13.778;2022-12-18T06:11:24;-11.40;99.90
18876;DHT22;9570;50.854;13.778;2022-12-18T06:13:51;-11.40;99.90
18876;DHT22;9570;50.854;13.778;2022-12-18T06:16:16;-11.30;99.90
18876;DHT22;9570;50.854;13.778;2022-12-18T06:18:42;-11.30;99.90
18876;DHT22;9570;50.854;13.778;2022-12-18T06:21:07;-11.30;99.90
18876;DHT22;9570;50.854;13.778;2022-12-18T06:23:33;-11.30;99.90
18876;DHT22;9570;50.854;13.778;2022-12-18T06:25:58;-11.20;99.90
18876;DHT22;9570;50.854;13.778;2022-12-18T06:28:28;-11.20;99.90
18876;DHT22;9570;50.854;13.778;2022-12-18T06:30:53;-11.20;99.90
18876;DHT22;9570;50.854;13.778;2022-12-18T06:33:19;-11.20;99.90
18876;DHT22;9570;50.854;13.778;2022-12-18T06:35:44;-11.10;99.90
18876;DHT22;9570;50.854;13.778;2022-12-18T06:38:10;-11.20;99.90
18876;DHT22;9570;50.854;13.778;2022-12-18T06:40:37;-11.20;99.90
18876;DHT22;9570;50.854;13.778;2022-12-18T06:43:04;-11.20;99.90
18876;DHT22;9570;50.854;13.778;2022-12-18T06:45:29;-11.20;99.90
18876;DHT22;9570;50.854;13.778;2022-12-18T06:47:55;-11.20;99.90
18876;DHT22;9570;50.854;13.778;2022-12-18T06:50:20;-11.20;99.90
18876;DHT22;9570;50.854;13.778;2022-12-18T06:52:46;-11.10;99.90
18876;DHT22;9570;50.854;13.778;2022-12-18T06:55:11;-11.10;99.90
18876;DHT22;9570;50.854;13.778;2022-12-18T06:57:37;-11.10;99.90
18876;DHT22;9570;50.854;13.778;2022-12-18T07:00:05;-11.00;99.90
18876;DHT22;9570;50.854;13.778;2022-12-18T07:02:31;-11.00;99.90
18876;DHT22;9570;50.854;13.778;2022-12-18T07:04:56;-11.00;99.90
18876;DHT22;9570;50.854;13.778;2022-12-18T07:07:22;-11.00;99.90
18876;DHT22;9570;50.854;13.778;2022-12-18T07:09:49;-10.90;99.90
18876;DHT22;9570;50.854;13.778;2022-12-18T07:12:15;-10.90;99.90
18876;DHT22;9570;50.854;13.778;2022-12-18T07:14:40;-10.90;99.90
18876;DHT22;9570;50.854;13.778;2022-12-18T07:17:06;-10.80;99.90
18876;DHT22;9570;50.854;13.778;2022-12-18T07:19:31;-10.80;99.90
18876;DHT22;9570;50.854;13.778;2022-12-18T07:21:57;-10.80;99.90
18876;DHT22;9570;50.854;13.778;2022-12-18T07:24:22;-10.70;99.90
18876;DHT22;9570;50.854;13.778;2022-12-18T07:26:48;-10.80;99.90
18876;DHT22;9570;50.854;13.778;2022-12-18T07:29:13;-10.70;99.90
18876;DHT22;9570;50.854;13.778;2022-12-18T07:31:39;-10.60;99.90
18876;DHT22;9570;50.854;13.778;2022-12-18T07:34:04;-10.60;99.90
18876;DHT22;9570;50.854;13.778;2022-12-18T07:36:30;-10.60;99.90
18876;DHT22;9570;50.854;13.778;2022-12-18T07:38:55;-10.60;99.90
18876;DHT22;9570;50.854;13.778;2022-12-18T07:41:21;-10.60;99.90
18876;DHT22;9570;50.854;13.778;2022-12-18T07:43:47;-10.60;99.90
18876;DHT22;9570;50.854;13.778;2022-12-18T07:46:14;-10.50;99.90
18876;DHT22;9570;50.854;13.778;2022-12-18T07:48:41;-10.40;99.90
18876;DHT22;9570;50.854;13.778;2022-12-18T07:51:08;-10.30;99.90
18876;DHT22;9570;50.854;13.778;2022-12-18T07:53:34;-10.00;99.90
18876;DHT22;9570;50.854;13.778;2022-12-18T07:56:03;-9.70;99.90
18876;DHT22;9570;50.854;13.778;2022-12-18T07:58:29;-9.30;99.90
18876;DHT22;9570;50.854;13.778;2022-12-18T08:01:05;-8.90;99.90
18876;DHT22;9570;50.854;13.778;2022-12-18T08:03:32;-8.40;99.90
18876;DHT22;9570;50.854;13.778;2022-12-18T08:06:02;-8.00;99.90
18876;DHT22;9570;50.854;13.778;2022-12-18T08:08:28;-7.50;99.90
18876;DHT22;9570;50.854;13.778;2022-12-18T08:10:55;-7.30;99.90
18876;DHT22;9570;50.854;13.778;2022-12-18T08:13:20;-7.10;99.90
18876;DHT22;9570;50.854;13.778;2022-12-18T08:15:46;-6.80;99.90
18876;DHT22;9570;50.854;13.778;2022-12-18T08:18:20;-6.40;99.90
18876;DHT22;9570;50.854;13.778;2022-12-18T08:20:45;-6.00;99.90
18876;DHT22;9570;50.854;13.778;2022-12-18T08:23:11;-5.70;99.90
18876;DHT22;9570;50.854;13.778;2022-12-18T08:25:36;-5.50;99.90
18876;DHT22;9570;50.854;13.778;2022-12-18T08:28:02;-5.30;99.90
18876;DHT22;9570;50.854;13.778;2022-12-18T08:30:27;-4.80;99.90
18876;DHT22;9570;50.854;13.778;2022-12-18T08:32:53;-4.70;99.90
18876;DHT22;9570;50.854;13.778;2022-12-18T08:35:19;-4.50;99.90
18876;DHT22;9570;50.854;13.778;2022-12-18T08:37:44;-4.20;99.90
18876;DHT22;9570;50.854;13.778;2022-12-18T08:40:10;-4.00;99.90
18876;DHT22;9570;50.854;13.778;2022-12-18T08:42:36;-3.80;99.90
18876;DHT22;9570;50.854;13.778;2022-12-18T08:45:20;-3.70;99.90
18876;DHT22;9570;50.854;13.778;2022-12-18T08:47:45;-3.40;99.90
18876;DHT22;9570;50.854;13.778;2022-12-18T08:50:10;-3.30;99.90
18876;DHT22;9570;50.854;13.778;2022-12-18T08:52:37;-3.00;99.90
18876;DHT22;9570;50.854;13.778;2022-12-18T08:55:03;-2.90;99.90
18876;DHT22;9570;50.854;13.778;2022-12-18T08:57:28;-2.50;99.90
18876;DHT22;9570;50.854;13.778;2022-12-18T08:59:54;-2.50;99.90
18876;DHT22;9570;50.854;13.778;2022-12-18T09:02:20;-2.20;99.90
18876;DHT22;9570;50.854;13.778;2022-12-18T09:04:47;-2.00;99.90
18876;DHT22;9570;50.854;13.778;2022-12-18T09:07:13;-1.70;99.90
18876;DHT22;9570;50.854;13.778;2022-12-18T09:09:38;-1.50;99.90
18876;DHT22;9570;50.854;13.778;2022-12-18T09:12:04;-1.30;99.90
18876;DHT22;9570;50.854;13.778;2022-12-18T09:14:29;-1.10;99.90
18876;DHT22;9570;50.854;13.778;2022-12-18T09:16:55;-0.90;99.90
18876;DHT22;9570;50.854;13.778;2022-12-18T09:19:20;-0.90;99.90
18876;DHT22;9570;50.854;13.778;2022-12-18T09:21:46;-0.60;99.90
18876;DHT22;9570;50.854;13.778;2022-12-18T09:24:12;-0.50;99.90
18876;DHT22;9570;50.854;13.778;2022-12-18T09:26:38;-0.30;99.90
18876;DHT22;9570;50.854;13.778;2022-12-18T09:29:04;-0.40;99.90
18876;DHT22;9570;50.854;13.778;2022-12-18T09:31:30;-0.20;99.90
18876;DHT22;9570;50.854;13.778;2022-12-18T09:33:56;-0.30;99.90
18876;DHT22;9570;50.854;13.778;2022-12-18T09:36:21;-0.30;99.90
18876;DHT22;9570;50.854;13.778;2022-12-18T09:38:47;-0.20;99.90
18876;DHT22;9570;50.854;13.778;2022-12-18T09:41:42;-0.20;99.90
18876;DHT22;9570;50.854;13.778;2022-12-18T09:49:38;0.30;99.90
18876;DHT22;9570;50.854;13.778;2022-12-18T09:52:14;0.50;99.90
18876;DHT22;9570;50.854;13.778;2022-12-18T09:54:45;0.60;99.90
18876;DHT22;9570;50.854;13.778;2022-12-18T09:57:15;0.60;99.90
18876;DHT22;9570;50.854;13.778;2022-12-18T09:59:45;0.60;99.90
18876;DHT22;9570;50.854;13.778;2022-12-18T10:02:24;0.70;99.90
18876;DHT22;9570;50.854;13.778;2022-12-18T10:05:06;0.90;99.90
18876;DHT22;9570;50.854;13.778;2022-12-18T10:10:36;1.10;99.90
18876;DHT22;9570;50.854;13.778;2022-12-18T10:26:48;1.60;99.90
18876;DHT22;9570;50.854;13.778;2022-12-18T10:29:15;1.80;99.90
18876;DHT22;9570;50.854;13.778;2022-12-18T10:31:41;1.50;99.90
18876;DHT22;9570;50.854;13.778;2022-12-18T10:34:15;1.60;99.90
18876;DHT22;9570;50.854;13.778;2022-12-18T10:36:41;1.70;99.90
18876;DHT22;9570;50.854;13.778;2022-12-18T10:39:22;1.60;99.90
18876;DHT22;9570;50.854;13.778;2022-12-18T10:41:48;1.50;99.90
18876;DHT22;9570;50.854;13.778;2022-12-18T10:44:18;1.30;99.90
18876;DHT22;9570;50.854;13.778;2022-12-18T10:46:46;1.80;99.90
18876;DHT22;9570;50.854;13.778;2022-12-18T10:49:26;2.10;99.90
18876;DHT22;9570;50.854;13.778;2022-12-18T10:52:15;2.40;99.90
18876;DHT22;9570;50.854;13.778;2022-12-18T10:55:05;2.10;99.90
18876;DHT22;9570;50.854;13.778;2022-12-18T10:57:38;1.90;99.90
18876;DHT22;9570;50.854;13.778;2022-12-18T11:02:51;2.60;99.90
18876;DHT22;9570;50.854;13.778;2022-12-18T11:07:57;2.50;99.90
18876;DHT22;9570;50.854;13.778;2022-12-18T11:10:32;2.40;99.90
18876;DHT22;9570;50.854;13.778;2022-12-18T11:13:18;2.40;99.90
18876;DHT22;9570;50.854;13.778;2022-12-18T11:15:45;2.70;99.90
18876;DHT22;9570;50.854;13.778;2022-12-18T11:18:37;2.80;99.90
18876;DHT22;9570;50.854;13.778;2022-12-18T11:21:06;2.80;99.90
18876;DHT22;9570;50.854;13.778;2022-12-18T11:23:34;2.70;99.90
18876;DHT22;9570;50.854;13.778;2022-12-18T11:26:02;2.90;99.90
18876;DHT22;9570;50.854;13.778;2022-12-18T11:29:07;2.80;99.90
18876;DHT22;9570;50.854;13.778;2022-12-18T11:31:33;2.70;99.90
18876;DHT22;9570;50.854;13.778;2022-12-18T11:36:26;2.50;99.90
18876;DHT22;9570;50.854;13.778;2022-12-18T11:38:55;2.30;99.90
18876;DHT22;9570;50.854;13.778;2022-12-18T11:41:29;2.00;99.90
18876;DHT22;9570;50.854;13.778;2022-12-18T11:44:29;1.80;99.90
18876;DHT22;9570;50.854;13.778;2022-12-18T11:47:03;1.50;99.90
18876;DHT22;9570;50.854;13.778;2022-12-18T11:49:34;1.40;99.90
18876;DHT22;9570;50.854;13.778;2022-12-18T11:54:46;1.00;99.90
18876;DHT22;9570;50.854;13.778;2022-12-18T11:58:22;1.10;99.90
18876;DHT22;9570;50.854;13.778;2022-12-18T12:00:21;1.10;99.90
18876;DHT22;9570;50.854;13.778;2022-12-18T12:10:55;1.20;99.90
18876;DHT22;9570;50.854;13.778;2022-12-18T12:16:20;1.40;99.90
18876;DHT22;9570;50.854;13.778;2022-12-18T12:19:32;1.40;99.90
18876;DHT22;9570;50.854;13.778;2022-12-18T12:35:51;0.60;99.90
18876;DHT22;9570;50.854;13.778;2022-12-18T12:38:35;0.50;99.90
18876;DHT22;9570;50.854;13.778;2022-12-18T12:41:08;-0.10;99.90
18876;DHT22;9570;50.854;13.778;2022-12-18T12:43:57;-0.30;99.90
18876;DHT22;9570;50.854;13.778;2022-12-18T12:46:23;-0.20;99.90
18876;DHT22;9570;50.854;13.778;2022-12-18T12:49:00;-0.30;99.90
18876;DHT22;9570;50.854;13.778;2022-12-18T12:51:37;-0.30;99.90
18876;DHT22;9570;50.854;13.778;2022-12-18T12:54:08;-0.10;99.90
18876;DHT22;9570;50.854;13.778;2022-12-18T12:59:19;0.00;99.90
18876;DHT22;9570;50.854;13.778;2022-12-18T13:01:59;-0.20;99.90
18876;DHT22;9570;50.854;13.778;2022-12-18T13:04:49;-0.30;99.90
18876;DHT22;9570;50.854;13.778;2022-12-18T13:07:37;-0.50;99.90
18876;DHT22;9570;50.854;13.778;2022-12-18T13:13:08;-0.70;99.90
18876;DHT22;9570;50.854;13.778;2022-12-18T13:15:46;-0.80;99.90
18876;DHT22;9570;50.854;13.778;2022-12-18T13:18:17;-0.80;99.90
18876;DHT22;9570;50.854;13.778;2022-12-18T13:25:52;-0.50;99.90
18876;DHT22;9570;50.854;13.778;2022-12-18T13:31:05;-0.60;99.90
18876;DHT22;9570;50.854;13.778;2022-12-18T13:33:45;-0.60;99.90
18876;DHT22;9570;50.854;13.778;2022-12-18T13:36:26;-0.90;99.90
18876;DHT22;9570;50.854;13.778;2022-12-18T13:41:43;-1.10;99.90
18876;DHT22;9570;50.854;13.778;2022-12-18T13:47:00;-1.30;99.90
18876;DHT22;9570;50.854;13.778;2022-12-18T13:49:37;-1.30;99.90
18876;DHT22;9570;50.854;13.778;2022-12-18T13:52:18;-1.30;99.90
18876;DHT22;9570;50.854;13.778;2022-12-18T13:54:51;-1.30;99.90
18876;DHT22;9570;50.854;13.778;2022-12-18T13:57:34;-1.30;99.90
18876;DHT22;9570;50.854;13.778;2022-12-18T14:00:24;-1.20;99.90
18876;DHT22;9570;50.854;13.778;2022-12-18T14:02:50;-1.10;99.90
18876;DHT22;9570;50.854;13.778;2022-12-18T14:05:27;-1.00;99.90
18876;DHT22;9570;50.854;13.778;2022-12-18T14:07:54;-1.10;99.90
18876;DHT22;9570;50.854;13.778;2022-12-18T14:10:21;-1.30;99.90
18876;DHT22;9570;50.854;13.778;2022-12-18T14:12:49;-1.40;99.90
18876;DHT22;9570;50.854;13.778;2022-12-18T14:20:43;-1.20;99.90
18876;DHT22;9570;50.854;13.778;2022-12-18T14:23:27;-1.30;99.90
18876;DHT22;9570;50.854;13.778;2022-12-18T14:25:52;-1.30;99.90
18876;DHT22;9570;50.854;13.778;2022-12-18T14:28:18;-1.30;99.90
18876;DHT22;9570;50.854;13.778;2022-12-18T14:30:45;-1.60;99.90
18876;DHT22;9570;50.854;13.778;2022-12-18T14:35:54;-1.60;99.90
18876;DHT22;9570;50.854;13.778;2022-12-18T14:38:31;-1.80;99.90
18876;DHT22;9570;50.854;13.778;2022-12-18T14:43:23;-1.90;99.90
18876;DHT22;9570;50.854;13.778;2022-12-18T14:45:49;-1.90;99.90
18876;DHT22;9570;50.854;13.778;2022-12-18T14:48:38;-1.90;99.90
18876;DHT22;9570;50.854;13.778;2022-12-18T14:51:16;-1.80;99.90
18876;DHT22;9570;50.854;13.778;2022-12-18T14:53:44;-1.90;99.90
18876;DHT22;9570;50.854;13.778;2022-12-18T14:58:55;-2.30;99.90
18876;DHT22;9570;50.854;13.778;2022-12-18T15:03:53;-2.50;99.90
18876;DHT22;9570;50.854;13.778;2022-12-18T15:06:39;-2.60;99.90
18876;DHT22;9570;50.854;13.778;2022-12-18T15:09:22;-2.70;99.90
18876;DHT22;9570;50.854;13.778;2022-12-18T15:11:48;-2.90;99.90
18876;DHT22;9570;50.854;13.778;2022-12-18T15:17:15;-3.00;99.90
18876;DHT22;9570;50.854;13.778;2022-12-18T15:19:43;-3.00;99.90
18876;DHT22;9570;50.854;13.778;2022-12-18T15:24:44;-2.90;99.90
18876;DHT22;9570;50.854;13.778;2022-12-18T15:27:32;-2.90;99.90
18876;DHT22;9570;50.854;13.778;2022-12-18T15:32:36;-3.10;99.90
18876;DHT22;9570;50.854;13.778;2022-12-18T15:37:33;-3.10;99.90
18876;DHT22;9570;50.854;13.778;2022-12-18T15:39:59;-3.00;99.90
18876;DHT22;9570;50.854;13.778;2022-12-18T15:42:24;-3.00;99.90
18876;DHT22;9570;50.854;13.778;2022-12-18T15:45:12;-2.80;99.90
18876;DHT22;9570;50.854;13.778;2022-12-18T15:47:38;-3.10;99.90
18876;DHT22;9570;50.854;13.778;2022-12-18T15:50:04;-3.10;99.90
18876;DHT22;9570;50.854;13.778;2022-12-18T15:52:30;-3.10;99.90
18876;DHT22;9570;50.854;13.778;2022-12-18T15:54:56;-3.10;99.90
18876;DHT22;9570;50.854;13.778;2022-12-18T15:57:40;-3.10;99.90
18876;DHT22;9570;50.854;13.778;2022-12-18T16:00:05;-3.10;99.90
18876;DHT22;9570;50.854;13.778;2022-12-18T16:02:31;-3.20;99.90
18876;DHT22;9570;50.854;13.778;2022-12-18T16:04:57;-3.20;99.90
18876;DHT22;9570;50.854;13.778;2022-12-18T16:07:22;-3.30;99.90
18876;DHT22;9570;50.854;13.778;2022-12-18T16:09:48;-3.30;99.90
18876;DHT22;9570;50.854;13.778;2022-12-18T16:12:22;-3.40;99.90
18876;DHT22;9570;50.854;13.778;2022-12-18T16:14:49;-3.50;99.90
18876;DHT22;9570;50.854;13.778;2022-12-18T16:17:14;-3.50;99.90
18876;DHT22;9570;50.854;13.778;2022-12-18T16:19:40;-3.30;99.90
18876;DHT22;9570;50.854;13.778;2022-12-18T16:22:18;-3.30;99.90
18876;DHT22;9570;50.854;13.778;2022-12-18T16:24:45;-3.00;99.90
18876;DHT22;9570;50.854;13.778;2022-12-18T16:27:11;-3.00;99.90
18876;DHT22;9570;50.854;13.778;2022-12-18T16:29:36;-2.90;99.90
18876;DHT22;9570;50.854;13.778;2022-12-18T16:32:02;-2.90;99.90
18876;DHT22;9570;50.854;13.778;2022-12-18T16:34:30;-2.80;99.90
18876;DHT22;9570;50.854;13.778;2022-12-18T16:36:57;-2.90;99.90
18876;DHT22;9570;50.854;13.778;2022-12-18T16:39:24;-2.90;99.90
18876;DHT22;9570;50.854;13.778;2022-12-18T16:41:49;-2.80;99.90
18876;DHT22;9570;50.854;13.778;2022-12-18T16:44:15;-2.70;99.90
18876;DHT22;9570;50.854;13.778;2022-12-18T16:46:41;-2.60;99.90
18876;DHT22;9570;50.854;13.778;2022-12-18T16:49:15;-2.60;99.90
18876;DHT22;9570;50.854;13.778;2022-12-18T16:51:41;-2.50;99.90
18876;DHT22;9570;50.854;13.778;2022-12-18T16:54:07;-2.50;99.90
18876;DHT22;9570;50.854;13.778;2022-12-18T16:56:33;-2.50;99.90
18876;DHT22;9570;50.854;13.778;2022-12-18T16:59:00;-2.40;99.90
18876;DHT22;9570;50.854;13.778;2022-12-18T17:01:27;-2.40;99.90
18876;DHT22;9570;50.854;13.778;2022-12-18T17:03:56;-2.40;99.90
18876;DHT22;9570;50.854;13.778;2022-12-18T17:06:25;-2.30;99.90
18876;DHT22;9570;50.854;13.778;2022-12-18T17:08:58;-2.40;99.90
18876;DHT22;9570;50.854;13.778;2022-12-18T17:11:27;-2.40;99.90
18876;DHT22;9570;50.854;13.778;2022-12-18T17:13:53;-2.40;99.90
18876;DHT22;9570;50.854;13.778;2022-12-18T17:16:19;-2.30;99.90
18876;DHT22;9570;50.854;13.778;2022-12-18T17:18:44;-2.30;99.90
18876;DHT22;9570;50.854;13.778;2022-12-18T17:21:11;-2.30;99.90
18876;DHT22;9570;50.854;13.778;2022-12-18T17:23:39;-2.30;99.90
18876;DHT22;9570;50.854;13.778;2022-12-18T17:26:05;-2.20;99.90
18876;DHT22;9570;50.854;13.778;2022-12-18T17:28:33;-2.30;99.90
18876;DHT22;9570;50.854;13.778;2022-12-18T17:30:59;-2.30;99.90
18876;DHT22;9570;50.854;13.778;2022-12-18T17:33:25;-2.30;99.90
18876;DHT22;9570;50.854;13.778;2022-12-18T17:35:51;-2.20;99.90
18876;DHT22;9570;50.854;13.778;2022-12-18T17:38:17;-2.20;99.90
18876;DHT22;9570;50.854;13.778;2022-12-18T17:40:42;-2.10;99.90
18876;DHT22;9570;50.854;13.778;2022-12-18T17:43:09;-2.10;99.90